Angwin, CA

4:25 AM PDT on September 01, 2014 (GMT -0700)
KCAPOPEV3 | Change Station
CLOSE
Current Station
Personal Weather Station
Location: Pope Valley, CA
Elevation: 896 ft
Nearby Weather Stations

Elev 896 ft 38.61 °N, 122.42 °W | Updated 38 seconds ago

Clear
Clear
60.6 °F
Feels Like 60.6 °F
N
0.0
Wind Variable Wind from NW
Gusts 0.0 mph

Today
High -- | Low -- °F
--% Chance of Precip.
Yesterday
High -- | Low -- °F
Precip. -- in
6:39 AM 7:39 PM
Waxing Crescent, 40% visible
Pressure 29.79 in
Visibility 10.0 miles
Clouds Clear
Dew Point 48 °F
Humidity 63%
Rainfall 0.00 in
Snow Depth Not available.
UV 0.0 out of 12
Pollen 9.40 out of 12
PM2.5 Moderate
Flu Activity Not available.
METAR KSTS 011053Z AUTO 00000KT 10SM CLR 12/10 A2981 RMK AO2 SLP088 T01220100

More Conditions Fewer Conditions

Pressure 29.79 in
Visibility 10.0 miles
Clouds Clear
Dew Point 48 °F
Humidity 63%
Rainfall 0.00 in
Snow Depth Not available.
UV 0.0 out of 12
Pollen 9.40 out of 12
PM2.5 Moderate
Flu Activity Not available.
METAR KSTS 011053Z AUTO 00000KT 10SM CLR 12/10 A2981 RMK AO2 SLP088 T01220100

More Conditions Fewer Conditions

10-Day Weather Forecast

Almanac

Astronomy

Sep. 01, 2014 Rise Set
Actual Time 6:39 AM PDT 7:39 PM PDT
Civil Twilight 6:11 AM PDT 8:06 PM PDT
Nautical Twilight 5:39 AM PDT 8:38 PM PDT
Astronomical Twilight 5:06 AM PDT 9:12 PM PDT
Moon 1:25 PM PDT 11:50 PM PDT
Length of Visible Light 13h 54m
Length of Day
13h 00m
Tomorrow will be 2m 24s shorter.
Waxing Crescent, 40% of the Moon is Illuminated
Today
Waxing Crescent
Sep 2
First Quarter
Sep 8
Full
Sep 15
Last Quarter
Sep 24
New

Today's Extremes

State Highs State Lows

Community

WunderPhotos

Upload Photos

1,749,188 photos uploaded!

Nearby

Air Quality

  Air Quality AQ Index Pollutant
Yesterday Good
PM2.5
Yesterday Good
OZONE
Current Moderate
PM2.5
Monday Good
PM2.5
Tuesday Good
PM2.5
Wednesday Good
PM2.5
Thursday Good
PM2.5
Friday Good
PM2.5

Snow Depth

Station Depth Elevation
CSS Lab 4 in 6900 ft
Squaw Valley 0 in 8200 ft
Rubicon #2 0 in 7500 ft
Echo Peak 0 in 7800 ft
Fallen Leaf 0 in 6300 ft

Earthquake Activity

City Distance Mag. Time & Date
Green Valley, California 27 miles 2.5 6:37 AM PDT
2014-08-31
Napa, California 24 miles 3.2 1:56 AM PDT
2014-08-31
Gonzales, California 149 miles 2.7 9:48 PM PDT
2014-08-30
Ridgemark, California 144 miles 3.4 4:32 PM PDT
2014-08-29
Minimum magnitude displayed is 2.5.

Coastal Water Temperatures

Place Temperature
No Stations Reporting

Nearby Weather Stations